Puisoye, Argentina
Current Conditions -  °F | °C
As of 1:00 PM on Tuesday 21 Oct 2014 (Local Time) from SARC Reporting Station
Clear Clear  
Wind Chill: 30°   Ceiling: Unl
Heat Index: 30°   Visibility: 6mi
Dew Point:   Wind: 10mph
Humidity: 27%   Direction: 110°ESE
Pressure: 30.06"   Gusts: NA
Location:  27.88°S, 57.87°W
Report Text: SARC 211600Z 11009KT CAVOK 30/09 Q1018
Loading
Personal Weather Stations






























Interactive Weather Map
Tropical Storm Tracking
New forecast layout! Learn more

10-Day Weather Forecast

Advertisements
Track Severe Weather on mobile